createdAt,value
2019-02-05T00:00:56.423Z,63.00
2019-02-05T00:03:27.189Z,63.40
2019-02-05T00:05:57.936Z,63.90
2019-02-05T00:08:28.656Z,64.30
2019-02-05T00:10:59.728Z,64.80
2019-02-05T00:13:30.414Z,65.20
2019-02-05T00:16:00.977Z,65.90
2019-02-05T00:18:31.513Z,65.70
2019-02-05T00:21:02.173Z,65.60
2019-02-05T00:23:32.817Z,65.30
2019-02-05T00:26:06.183Z,65.40
2019-02-05T00:28:35.909Z,65.60
2019-02-05T00:31:06.661Z,65.40
2019-02-05T00:33:37.311Z,65.50
2019-02-05T00:36:07.959Z,65.30
2019-02-05T00:38:38.587Z,65.60
2019-02-05T00:41:10.255Z,65.20
2019-02-05T00:43:41.071Z,65.20
2019-02-05T00:46:11.905Z,65.30
2019-02-05T00:48:42.427Z,65.50
2019-02-05T00:51:13.456Z,65.30
2019-02-05T00:53:44.015Z,65.30
2019-02-05T00:56:17.683Z,65.10
2019-02-05T00:58:47.286Z,65.00
2019-02-05T01:01:18.033Z,64.90
2019-02-05T01:03:48.759Z,65.30
2019-02-05T01:06:19.822Z,64.80
2019-02-05T01:08:50.542Z,65.10
2019-02-05T01:11:21.734Z,65.10
2019-02-05T01:13:52.386Z,64.90
2019-02-05T01:16:23.364Z,65.00
2019-02-05T01:18:53.942Z,65.10
2019-02-05T01:21:24.601Z,64.40
2019-02-05T01:23:55.249Z,64.50
2019-02-05T01:26:29.148Z,64.50
2019-02-05T01:28:58.289Z,64.10
2019-02-05T01:31:29.017Z,64.40
2019-02-05T01:33:59.578Z,64.50
2019-02-05T01:36:30.489Z,65.20
2019-02-05T01:39:01.370Z,65.30
2019-02-05T01:41:32.017Z,65.20
2019-02-05T01:44:02.877Z,65.20
2019-02-05T01:46:33.511Z,65.10
2019-02-05T01:49:04.339Z,65.60
2019-02-05T01:51:35.001Z,65.90
2019-02-05T01:54:06.009Z,66.90
2019-02-05T01:56:40.759Z,67.90
2019-02-05T01:59:09.325Z,68.50
2019-02-05T02:01:40.145Z,70.00
2019-02-05T02:04:11.377Z,70.30
2019-02-05T02:06:42.310Z,70.80
2019-02-05T02:09:13.159Z,71.60
2019-02-05T02:11:43.810Z,72.50
2019-02-05T02:14:14.413Z,73.20
2019-02-05T02:16:45.073Z,73.60
2019-02-05T02:19:16.454Z,73.90
2019-02-05T02:21:47.166Z,74.60
2019-02-05T02:24:17.838Z,75.80
2019-02-05T02:26:52.137Z,76.30
2019-02-05T02:29:21.301Z,76.30
2019-02-05T02:31:51.854Z,76.40
2019-02-05T02:34:22.456Z,76.90
2019-02-05T02:36:53.054Z,77.70
2019-02-05T02:39:23.671Z,78.50
2019-02-05T02:41:54.274Z,79.70
2019-02-05T02:44:25.051Z,80.00
2019-02-05T02:46:55.785Z,81.00
2019-02-05T02:49:26.630Z,81.80
2019-02-05T02:51:57.197Z,81.70
2019-02-05T02:54:27.960Z,82.30
2019-02-05T02:57:04.872Z,83.10
2019-02-05T02:59:30.822Z,82.80
2019-02-05T03:02:02.024Z,82.70
2019-02-05T03:04:32.914Z,82.90
2019-02-05T03:07:03.929Z,83.90
2019-02-05T03:09:34.822Z,84.50
2019-02-05T03:12:05.717Z,84.60
2019-02-05T03:14:36.380Z,84.10
2019-02-05T03:17:07.672Z,84.30
2019-02-05T03:19:38.420Z,84.80
2019-02-05T03:22:08.989Z,84.70
2019-02-05T03:24:40.120Z,84.50
2019-02-05T03:27:17.990Z,84.20
2019-02-05T03:29:43.144Z,85.00
2019-02-05T03:32:13.997Z,84.60
2019-02-05T03:34:44.575Z,84.80
2019-02-05T03:37:15.324Z,84.60
2019-02-05T03:39:46.041Z,84.20
2019-02-05T03:42:16.968Z,84.20
2019-02-05T03:44:47.793Z,84.20
2019-02-05T03:47:24.615Z,84.00
2019-02-05T03:49:55.272Z,83.90
2019-02-05T03:52:37.230Z,83.80
2019-02-05T03:55:24.803Z,83.70
2019-02-05T03:58:23.112Z,84.10
2019-02-05T04:01:38.408Z,83.90
2019-02-05T04:05:08.553Z,83.70
2019-02-05T04:08:20.436Z,83.50
2019-02-05T04:15:35.940Z,84.30
2019-02-05T04:18:30.861Z,84.00
2019-02-05T04:21:41.982Z,83.80
2019-02-05T04:24:26.190Z,85.10
2019-02-05T04:27:25.762Z,84.00
2019-02-05T04:30:43.246Z,84.00
2019-02-05T04:33:56.873Z,84.20
2019-02-05T04:37:01.391Z,83.90
2019-02-05T04:40:13.319Z,84.00
2019-02-05T04:43:15.080Z,84.30
2019-02-05T04:46:26.665Z,84.30
2019-02-05T04:49:27.505Z,84.50
2019-02-05T04:52:33.106Z,84.60
2019-02-05T04:55:32.742Z,84.70
2019-02-05T04:58:17.947Z,84.40
2019-02-05T05:01:24.315Z,85.40
2019-02-05T05:04:09.194Z,85.00
2019-02-05T05:07:20.103Z,85.40
2019-02-05T05:09:50.415Z,85.30
2019-02-05T05:12:21.301Z,85.60
2019-02-05T05:14:52.171Z,84.70
2019-02-05T05:17:23.188Z,84.90
2019-02-05T05:19:53.910Z,85.00
2019-02-05T05:22:25.310Z,84.80
2019-02-05T05:24:56.257Z,84.90
2019-02-05T05:27:27.371Z,84.90
2019-02-05T05:29:58.162Z,85.00
2019-02-05T05:32:28.974Z,84.80
2019-02-05T05:34:59.667Z,84.90
2019-02-05T05:37:30.640Z,85.20
2019-02-05T05:40:01.279Z,85.40
2019-02-05T05:42:31.885Z,85.80
2019-02-05T05:45:02.460Z,85.60
2019-02-05T05:47:33.206Z,85.80
2019-02-05T05:50:04.603Z,85.70
2019-02-05T05:52:35.741Z,85.50
2019-02-05T05:55:06.780Z,85.90
2019-02-05T05:57:37.436Z,85.90
2019-02-05T06:00:12.282Z,86.00
2019-02-05T06:02:42.927Z,86.00
2019-02-05T06:05:17.050Z,86.20
2019-02-05T06:07:47.883Z,86.30
2019-02-05T06:10:18.947Z,86.00
2019-02-05T06:12:49.547Z,86.00
2019-02-05T06:15:20.246Z,86.10
2019-02-05T06:17:51.109Z,86.30
2019-02-05T06:20:22.153Z,86.20
2019-02-05T06:22:53.700Z,86.50
2019-02-05T06:25:24.448Z,86.70
2019-02-05T06:27:55.655Z,86.90
2019-02-05T06:30:29.087Z,86.60
2019-02-05T06:33:00.050Z,86.80
2019-02-05T06:35:30.674Z,86.70
2019-02-05T06:38:01.532Z,86.70
2019-02-05T06:40:32.093Z,86.80
2019-02-05T06:43:02.727Z,86.60
2019-02-05T06:45:33.392Z,86.90
2019-02-05T06:48:04.330Z,87.00
2019-02-05T06:50:35.445Z,86.80
2019-02-05T06:53:06.074Z,86.90
2019-02-05T06:55:36.670Z,86.80
2019-02-05T06:58:07.458Z,87.10
2019-02-05T07:00:38.422Z,87.20
2019-02-05T07:03:09.401Z,87.50
2019-02-05T07:05:40.430Z,87.70
2019-02-05T07:08:11.066Z,87.50
2019-02-05T07:10:41.797Z,86.90
2019-02-05T07:13:12.970Z,86.90
2019-02-05T07:15:43.721Z,86.80
2019-02-05T07:18:14.580Z,86.90
2019-02-05T07:20:45.278Z,86.90
2019-02-05T07:23:15.938Z,87.10
2019-02-05T07:25:46.639Z,87.00
2019-02-05T07:28:17.317Z,87.40
2019-02-05T07:30:48.158Z,87.10
2019-02-05T07:33:26.351Z,87.30
2019-02-05T07:35:57.154Z,87.20
2019-02-05T07:38:27.730Z,87.40
2019-02-05T07:40:58.538Z,87.30
2019-02-05T07:43:29.430Z,87.10
2019-02-05T07:46:00.093Z,87.10
2019-02-05T07:48:30.946Z,86.90
2019-02-05T07:51:01.823Z,86.90
2019-02-05T07:53:33.313Z,87.00
2019-02-05T07:56:04.629Z,86.70
2019-02-05T07:58:35.661Z,86.50
2019-02-05T08:04:37.607Z,87.20
2019-02-05T08:07:08.345Z,86.50
2019-02-05T08:09:39.185Z,86.80
2019-02-05T08:12:10.252Z,86.90
2019-02-05T08:14:41.173Z,86.50
2019-02-05T08:17:11.955Z,86.60
2019-02-05T08:19:42.573Z,86.50
2019-02-05T08:22:13.916Z,86.60
2019-02-05T08:24:44.812Z,87.30
2019-02-05T08:27:15.469Z,86.60
2019-02-05T08:29:46.063Z,86.30
2019-02-05T08:32:16.663Z,86.40
2019-02-05T08:34:47.371Z,86.20
2019-02-05T08:37:18.635Z,86.10
2019-02-05T08:39:49.510Z,85.70
2019-02-05T08:42:20.407Z,85.30
2019-02-05T08:44:51.101Z,85.30
2019-02-05T08:47:21.839Z,85.10
2019-02-05T08:49:52.591Z,85.00
2019-02-05T08:52:23.266Z,84.70
2019-02-05T08:54:54.293Z,84.30
2019-02-05T08:57:24.959Z,84.40
2019-02-05T08:59:55.562Z,84.60
2019-02-05T09:02:26.274Z,84.20
2019-02-05T09:04:56.930Z,84.30
2019-02-05T09:07:27.864Z,84.20
2019-02-05T09:10:01.670Z,84.10
2019-02-05T09:12:32.691Z,83.90
2019-02-05T09:15:03.454Z,83.80
2019-02-05T09:17:34.183Z,83.60
2019-02-05T09:20:06.478Z,83.40
2019-02-05T09:22:37.234Z,83.40
2019-02-05T09:25:08.914Z,83.40
2019-02-05T09:27:39.678Z,83.40
2019-02-05T09:30:13.701Z,83.10
2019-02-05T09:32:44.866Z,83.00
2019-02-05T09:35:15.794Z,82.80
2019-02-05T09:37:46.804Z,82.70
2019-02-05T09:40:21.120Z,82.50
2019-02-05T09:42:52.008Z,82.10
2019-02-05T09:45:22.912Z,82.20
2019-02-05T09:47:54.105Z,81.70
2019-02-05T09:50:24.894Z,81.40
2019-02-05T09:52:55.750Z,81.30
2019-02-05T09:55:27.131Z,80.80
2019-02-05T09:57:58.166Z,80.90
2019-02-05T10:00:31.947Z,80.60
2019-02-05T10:03:03.572Z,80.10
2019-02-05T10:05:34.468Z,79.80
2019-02-05T10:08:05.395Z,79.60
2019-02-05T10:10:36.194Z,80.80
2019-02-05T10:13:07.906Z,79.50
2019-02-05T10:15:39.708Z,78.80
2019-02-05T10:18:11.937Z,78.90
2019-02-05T10:20:42.907Z,79.00
2019-02-05T10:23:13.652Z,79.00
2019-02-05T10:25:44.779Z,79.10
2019-02-05T10:28:15.715Z,79.40
2019-02-05T10:30:46.847Z,79.30
2019-02-05T10:33:17.528Z,79.20
2019-02-05T10:35:48.361Z,79.30
2019-02-05T10:38:19.162Z,79.80
2019-02-05T10:40:49.798Z,79.60
2019-02-05T10:43:20.663Z,79.60
2019-02-05T10:45:51.700Z,79.60
2019-02-05T10:48:22.553Z,79.80
2019-02-05T10:51:02.282Z,79.50
2019-02-05T10:53:32.911Z,79.50
2019-02-05T10:56:04.368Z,79.70
2019-02-05T10:58:35.170Z,79.90
2019-02-05T11:01:06.181Z,79.70
2019-02-05T11:03:37.134Z,79.50
2019-02-05T11:06:08.062Z,79.30
2019-02-05T11:08:38.705Z,79.40
2019-02-05T11:11:10.416Z,79.30
2019-02-05T11:13:41.159Z,79.70
2019-02-05T11:16:11.997Z,79.80
2019-02-05T11:18:42.876Z,79.70
2019-02-05T11:21:13.670Z,79.70
2019-02-05T11:23:44.367Z,79.70
2019-02-05T11:26:15.429Z,80.00
2019-02-05T11:28:46.155Z,80.10
2019-02-05T11:31:17.199Z,80.00
2019-02-05T11:33:47.799Z,80.20
2019-02-05T11:36:18.599Z,80.40
2019-02-05T11:38:49.380Z,80.20
2019-02-05T11:41:21.232Z,80.70
2019-02-05T11:43:51.923Z,80.50
2019-02-05T11:46:22.715Z,80.50
2019-02-05T11:48:53.374Z,80.40
2019-02-05T11:51:24.068Z,80.50
2019-02-05T11:53:54.933Z,80.20
2019-02-05T11:56:25.676Z,80.20
2019-02-05T11:58:56.618Z,80.10
2019-02-05T12:01:38.987Z,80.50
2019-02-05T12:04:06.087Z,80.40
2019-02-05T12:06:37.034Z,80.20
2019-02-05T12:09:20.609Z,80.90
2019-02-05T12:11:51.522Z,80.60
2019-02-05T12:14:22.370Z,80.90
2019-02-05T12:16:53.122Z,81.00
2019-02-05T12:19:23.761Z,81.20
2019-02-05T12:21:54.911Z,81.20
2019-02-05T12:24:25.623Z,81.10
2019-02-05T12:26:56.241Z,81.20
2019-02-05T12:29:26.933Z,81.60
2019-02-05T12:31:57.904Z,81.60
2019-02-05T12:34:28.544Z,81.80
2019-02-05T12:36:59.379Z,81.90
2019-02-05T12:39:30.018Z,81.90
2019-02-05T12:42:00.954Z,81.70
2019-02-05T12:44:31.914Z,81.80
2019-02-05T12:47:02.504Z,81.80
2019-02-05T12:49:33.209Z,81.60
2019-02-05T12:52:04.016Z,82.00
2019-02-05T12:54:34.622Z,81.80
2019-02-05T12:57:05.632Z,81.90
2019-02-05T12:59:36.274Z,82.10
2019-02-05T13:02:07.018Z,82.10
2019-02-05T13:04:38.071Z,82.20
2019-02-05T13:07:09.014Z,82.80
2019-02-05T13:09:39.890Z,83.00
2019-02-05T13:12:10.621Z,83.30
2019-02-05T13:14:41.316Z,83.50
2019-02-05T13:17:12.560Z,83.70
2019-02-05T13:19:43.294Z,84.20
2019-02-05T13:22:14.024Z,84.20
2019-02-05T13:24:44.675Z,84.40
2019-02-05T13:27:15.465Z,84.40
2019-02-05T13:29:46.117Z,84.70
2019-02-05T13:32:16.781Z,84.80
2019-02-05T13:34:55.106Z,84.80
2019-02-05T13:37:26.232Z,85.20
2019-02-05T13:39:56.878Z,85.70
2019-02-05T13:42:28.066Z,86.00
2019-02-05T13:44:58.777Z,86.10
2019-02-05T13:47:29.465Z,86.10
2019-02-05T13:50:00.249Z,86.00
2019-02-05T13:52:31.205Z,86.70
2019-02-05T13:55:02.067Z,86.60
2019-02-05T13:57:32.703Z,86.50
2019-02-05T14:00:04.330Z,86.30
2019-02-05T14:02:34.986Z,86.20
2019-02-05T14:05:06.925Z,86.20
2019-02-05T14:07:38.026Z,86.20
2019-02-05T14:10:12.631Z,86.30
2019-02-05T14:12:43.781Z,86.70
2019-02-05T14:15:15.361Z,86.60
2019-02-05T14:18:54.988Z,87.00
2019-02-05T14:21:20.662Z,87.20
2019-02-05T14:23:52.173Z,87.40
2019-02-05T14:26:22.890Z,87.30
2019-02-05T14:28:53.544Z,87.30
2019-02-05T14:31:31.149Z,87.40
2019-02-05T14:33:57.118Z,87.50
2019-02-05T14:36:28.156Z,87.50
2019-02-05T14:38:58.742Z,87.30
2019-02-05T14:41:29.424Z,87.50
2019-02-05T14:44:00.414Z,87.30
2019-02-05T14:46:31.294Z,87.10
2019-02-05T14:49:02.000Z,87.10
2019-02-05T14:51:33.029Z,87.40
2019-02-05T14:54:03.665Z,87.20
2019-02-05T14:56:34.449Z,87.10
2019-02-05T14:59:05.968Z,87.30
2019-02-05T15:01:43.312Z,87.50
2019-02-05T15:04:09.025Z,87.40
2019-02-05T15:06:39.776Z,87.00
2019-02-05T15:09:11.210Z,87.10
2019-02-05T15:11:41.839Z,87.10
2019-02-05T15:14:12.565Z,87.20
2019-02-05T15:16:43.592Z,86.90
2019-02-05T15:19:14.220Z,86.80
2019-02-05T15:21:45.015Z,86.60
2019-02-05T15:24:16.394Z,87.00
2019-02-05T15:26:47.456Z,86.80
2019-02-05T15:29:18.496Z,87.10
2019-02-05T15:31:54.603Z,86.90
2019-02-05T15:34:26.618Z,86.70
2019-02-05T15:36:57.455Z,87.10
2019-02-05T15:39:28.150Z,87.30
2019-02-05T15:41:59.227Z,87.60
2019-02-05T15:44:29.890Z,87.30
2019-02-05T15:47:00.603Z,88.20
2019-02-05T15:49:31.250Z,87.90
2019-02-05T15:52:02.063Z,88.10
2019-02-05T15:54:34.442Z,88.00
2019-02-05T15:57:05.233Z,88.50
2019-02-05T15:59:36.021Z,88.20
2019-02-05T16:02:06.985Z,87.80
2019-02-05T16:04:37.741Z,87.80
2019-02-05T16:07:08.843Z,88.30
2019-02-05T16:09:39.917Z,88.40
2019-02-05T16:12:10.867Z,88.00
2019-02-05T16:14:41.597Z,88.60
2019-02-05T16:17:12.228Z,88.30
2019-02-05T16:19:42.877Z,88.50
2019-02-05T16:22:13.614Z,88.60
2019-02-05T16:24:44.336Z,88.80
2019-02-05T16:27:15.214Z,89.20
2019-02-05T16:29:45.902Z,89.50
2019-02-05T16:32:17.861Z,90.00
2019-02-05T16:34:49.311Z,90.10
2019-02-05T16:37:20.058Z,89.10
2019-02-05T16:39:51.047Z,89.40
2019-02-05T16:42:21.935Z,89.70
2019-02-05T16:44:53.454Z,89.90
2019-02-05T16:47:24.132Z,89.90
2019-02-05T16:49:54.973Z,90.00
2019-02-05T16:52:25.739Z,89.80
2019-02-05T16:54:56.423Z,89.50
2019-02-05T16:57:27.219Z,89.60
2019-02-05T16:59:58.006Z,89.70
2019-02-05T17:02:29.334Z,89.50
2019-02-05T17:05:00.002Z,89.50
2019-02-05T17:07:30.992Z,89.40
2019-02-05T17:10:01.665Z,89.30
2019-02-05T17:12:32.453Z,89.60
2019-02-05T17:15:04.893Z,89.40
2019-02-05T17:17:35.715Z,89.30
2019-02-05T17:20:08.512Z,89.20
2019-02-05T17:22:39.790Z,89.40
2019-02-05T17:25:13.111Z,89.50
2019-02-05T17:27:44.614Z,89.10
2019-02-05T17:30:21.407Z,89.10
2019-02-05T17:32:52.367Z,88.60
2019-02-05T17:35:23.401Z,88.50
2019-02-05T17:37:53.218Z,88.20
2019-02-05T17:40:24.085Z,87.90
2019-02-05T17:42:55.044Z,87.70
2019-02-05T17:45:31.167Z,87.50
2019-02-05T17:48:04.428Z,87.50
2019-02-05T17:50:35.241Z,87.00
2019-02-05T17:53:06.263Z,87.00
2019-02-05T17:55:37.122Z,87.10
2019-02-05T17:58:08.062Z,87.10
2019-02-05T18:00:48.787Z,86.90
2019-02-05T18:03:19.683Z,86.60
2019-02-05T18:05:50.309Z,86.00
2019-02-05T18:08:21.006Z,85.90
2019-02-05T18:10:51.812Z,85.70
2019-02-05T18:13:22.707Z,85.40
2019-02-05T18:15:56.799Z,85.00
2019-02-05T18:18:27.494Z,84.00
2019-02-05T18:20:58.487Z,84.00
2019-02-05T18:23:29.684Z,83.60
2019-02-05T18:26:00.986Z,83.30
2019-02-05T18:28:37.479Z,83.80
2019-02-05T18:31:08.538Z,83.00
2019-02-05T18:33:39.212Z,82.90
2019-02-05T18:36:10.112Z,82.10
2019-02-05T18:38:41.050Z,81.70
2019-02-05T18:41:11.998Z,81.70
2019-02-05T18:43:47.470Z,81.60
2019-02-05T18:46:19.139Z,80.90
2019-02-05T18:48:50.056Z,81.10
2019-02-05T18:51:20.794Z,80.90
2019-02-05T18:53:51.785Z,80.90
2019-02-05T18:56:22.786Z,80.80
2019-02-05T18:58:53.873Z,80.40
2019-02-05T19:01:24.959Z,80.70
2019-02-05T19:03:55.982Z,81.50
2019-02-05T19:06:27.131Z,80.80
2019-02-05T19:12:49.692Z,80.80
2019-02-05T19:15:28.233Z,80.90
2019-02-05T19:18:04.168Z,81.10
2019-02-05T19:20:35.840Z,80.80
2019-02-05T19:36:01.576Z,81.50
2019-02-05T19:40:08.102Z,81.40
2019-02-05T19:43:06.888Z,82.00
2019-02-05T19:46:45.172Z,81.50
2019-02-05T19:54:11.274Z,81.10
2019-02-05T20:32:30.829Z,81.20
2019-02-05T20:35:01.908Z,81.40
2019-02-05T20:37:33.048Z,81.30
2019-02-05T20:40:06.859Z,81.00
2019-02-05T20:42:39.637Z,81.00
2019-02-05T20:45:12.046Z,81.00
2019-02-05T20:47:47.516Z,81.20
2019-02-05T20:50:20.163Z,81.10
2019-02-05T20:53:23.820Z,81.00
2019-02-05T20:55:59.636Z,81.00
2019-02-05T20:58:33.587Z,80.70
2019-02-05T21:01:05.304Z,80.80
2019-02-05T21:03:37.819Z,81.00
2019-02-05T21:06:10.318Z,81.20
2019-02-05T21:08:46.935Z,81.10
2019-02-05T21:11:20.524Z,81.30
2019-02-05T21:13:56.279Z,81.00
2019-02-05T21:16:30.711Z,80.90
2019-02-05T21:19:03.396Z,80.90
2019-02-05T21:21:34.756Z,80.90
2019-02-05T21:24:07.403Z,81.00
2019-02-05T21:26:41.094Z,80.50
2019-02-05T21:29:12.343Z,80.30
2019-02-05T21:31:43.360Z,81.10
2019-02-05T21:34:33.155Z,80.50
2019-02-05T21:37:07.834Z,80.70
2019-02-05T21:39:38.722Z,80.70
2019-02-05T21:46:13.638Z,80.90
2019-02-05T21:52:05.174Z,80.20
2019-02-05T21:54:43.434Z,80.20
2019-02-05T21:58:23.560Z,80.00
2019-02-05T22:01:43.355Z,80.30
2019-02-05T22:04:52.916Z,80.20
2019-02-05T22:07:35.726Z,80.60
2019-02-05T22:10:13.039Z,80.60
2019-02-05T22:12:51.539Z,81.10
2019-02-05T22:15:25.885Z,81.00
2019-02-05T22:17:56.972Z,81.10
2019-02-05T22:20:33.978Z,81.40
2019-02-05T22:23:04.846Z,81.30
2019-02-05T22:25:35.760Z,81.50
2019-02-05T22:28:06.856Z,81.40
2019-02-05T22:31:00.807Z,81.40
2019-02-05T22:33:33.265Z,81.40
2019-02-05T22:36:15.637Z,81.50
2019-02-05T22:39:36.645Z,81.20
2019-02-05T22:42:20.732Z,81.10
2019-02-05T22:45:22.364Z,81.30
2019-02-05T22:48:16.698Z,81.20
2019-02-05T22:50:55.213Z,81.40
2019-02-05T22:53:37.821Z,81.40
2019-02-05T22:56:37.092Z,81.30
2019-02-05T22:59:51.024Z,81.80
2019-02-05T23:02:39.313Z,82.30
2019-02-05T23:08:51.272Z,82.60
2019-02-05T23:12:04.972Z,82.00
2019-02-05T23:14:52.144Z,81.80
2019-02-05T23:17:36.733Z,81.70
2019-02-05T23:20:30.161Z,81.80
2019-02-05T23:23:13.518Z,81.80
2019-02-05T23:25:54.775Z,81.90
2019-02-05T23:28:41.257Z,82.00
2019-02-05T23:31:19.686Z,82.00
2019-02-05T23:33:57.982Z,82.10
2019-02-05T23:36:31.518Z,82.20
2019-02-05T23:39:20.906Z,82.20
2019-02-05T23:41:54.959Z,82.20
2019-02-05T23:44:35.469Z,82.50
2019-02-05T23:47:12.672Z,82.60
2019-02-05T23:49:45.819Z,82.60
2019-02-05T23:52:20.176Z,82.50
2019-02-05T23:55:13.295Z,82.60
2019-02-05T23:57:39.961Z,82.30
